createdAt,value
2022-09-17T00:01:51.496Z,99900.91
2022-09-17T00:04:20.108Z,99903.44
2022-09-17T00:06:48.636Z,99903.59
2022-09-17T00:09:18.623Z,99905.50
2022-09-17T00:11:49.953Z,99906.00
2022-09-17T00:14:19.528Z,99918.13
2022-09-17T00:16:49.533Z,99918.34
2022-09-17T00:19:20.225Z,99914.50
2022-09-17T00:21:48.715Z,99925.94
2022-09-17T00:24:19.807Z,99919.25
2022-09-17T00:26:49.117Z,99918.81
2022-09-17T00:29:18.031Z,99918.47
2022-09-17T00:31:46.597Z,99923.72
2022-09-17T00:34:16.041Z,99917.00
2022-09-17T00:36:44.974Z,99920.69
2022-09-17T00:39:15.899Z,99927.78
2022-09-17T00:41:46.103Z,99921.94
2022-09-17T00:44:44.358Z,99923.97
2022-09-17T00:47:17.183Z,99925.00
2022-09-17T00:49:46.956Z,99917.31
2022-09-17T00:52:19.922Z,99919.31
2022-09-17T00:54:59.209Z,99917.75
2022-09-17T00:57:30.805Z,99922.50
2022-09-17T00:59:59.814Z,99922.81
2022-09-17T01:02:28.576Z,99921.09
2022-09-17T01:04:57.538Z,99924.66
2022-09-17T01:07:44.557Z,99928.03
2022-09-17T01:10:28.350Z,99929.03
2022-09-17T01:13:08.143Z,99924.16
2022-09-17T01:15:47.581Z,99926.03
2022-09-17T01:18:31.169Z,99926.69
2022-09-17T01:21:38.642Z,99916.47
2022-09-17T01:24:44.435Z,99924.84
2022-09-17T01:27:52.055Z,99923.84
2022-09-17T01:30:43.307Z,99924.16
2022-09-17T01:33:18.595Z,99924.16
2022-09-17T01:35:54.690Z,99919.78
2022-09-17T01:38:29.135Z,99926.19
2022-09-17T01:41:07.939Z,99918.41
2022-09-17T01:43:44.030Z,99917.75
2022-09-17T01:46:19.183Z,99922.81
2022-09-17T01:48:56.714Z,99921.09
2022-09-17T01:51:27.662Z,99919.59
2022-09-17T01:54:00.950Z,99918.06
2022-09-17T01:56:36.789Z,99924.28
2022-09-17T01:59:11.289Z,99921.75
2022-09-17T02:01:43.472Z,99912.66
2022-09-17T02:04:18.371Z,99916.34
2022-09-17T02:06:53.143Z,99908.47
2022-09-17T02:09:26.479Z,99917.19
2022-09-17T02:12:01.683Z,99921.44
2022-09-17T02:14:36.591Z,99926.50
2022-09-17T02:17:15.249Z,99918.75
2022-09-17T02:19:45.882Z,99920.75
2022-09-17T02:22:24.374Z,99916.34
2022-09-17T02:25:03.449Z,99917.19
2022-09-17T02:27:43.016Z,99911.97
2022-09-17T02:30:12.238Z,99922.94
2022-09-17T02:32:44.221Z,99906.22
2022-09-17T02:35:15.335Z,99909.91
2022-09-17T02:37:44.724Z,99912.59
2022-09-17T02:40:19.719Z,99914.31
2022-09-17T02:43:09.257Z,99908.25
2022-09-17T02:45:50.971Z,99899.63
2022-09-17T02:48:41.370Z,99900.41
2022-09-17T02:51:24.837Z,99901.97
2022-09-17T02:54:03.810Z,99900.41
2022-09-17T02:56:45.973Z,99899.41
2022-09-17T02:59:20.822Z,99896.72
2022-09-17T03:01:57.182Z,99904.31
2022-09-17T03:04:29.829Z,99895.22
2022-09-17T03:07:00.137Z,99904.50
2022-09-17T03:09:28.360Z,99889.34
2022-09-17T03:11:56.753Z,99891.47
2022-09-17T03:14:25.084Z,99887.97
2022-09-17T03:16:53.693Z,99891.97
2022-09-17T03:19:21.961Z,99886.59
2022-09-17T03:21:50.597Z,99883.03
2022-09-17T03:24:20.698Z,99890.25
2022-09-17T03:26:49.596Z,99897.69
2022-09-17T03:29:18.131Z,99897.22
2022-09-17T03:31:46.944Z,99886.06
2022-09-17T03:34:15.585Z,99889.06
2022-09-17T03:36:44.296Z,99885.50
2022-09-17T03:39:13.199Z,99894.72
2022-09-17T03:41:45.005Z,99885.50
2022-09-17T03:44:18.843Z,99898.34
2022-09-17T03:46:47.504Z,99900.53
2022-09-17T03:49:19.294Z,99894.53
2022-09-17T03:51:48.139Z,99894.88
2022-09-17T03:54:17.653Z,99889.00
2022-09-17T03:56:47.409Z,99883.63
2022-09-17T03:59:16.316Z,99898.13
2022-09-17T04:01:44.727Z,99897.06
2022-09-17T04:04:13.329Z,99881.00
2022-09-17T04:06:42.053Z,99885.53
2022-09-17T04:09:10.436Z,99886.72
2022-09-17T04:11:39.665Z,99886.16
2022-09-17T04:14:09.595Z,99889.34
2022-09-17T04:16:39.378Z,99889.19
2022-09-17T04:19:07.895Z,99886.72
2022-09-17T04:21:37.533Z,99884.53
2022-09-17T04:24:06.949Z,99873.28
2022-09-17T04:26:35.166Z,99880.91
2022-09-17T04:29:04.104Z,99884.25
2022-09-17T04:31:34.450Z,99886.28
2022-09-17T04:34:10.472Z,99886.28
2022-09-17T04:36:38.805Z,99898.75
2022-09-17T04:39:07.346Z,99897.06
2022-09-17T04:41:35.941Z,99909.19
2022-09-17T04:44:06.432Z,99902.97
2022-09-17T04:46:36.990Z,99902.97
2022-09-17T04:49:06.334Z,99904.13
2022-09-17T04:51:34.816Z,99903.13
2022-09-17T04:54:06.331Z,99906.13
2022-09-17T04:56:35.046Z,99907.84
2022-09-17T04:59:07.707Z,99901.25
2022-09-17T05:01:38.132Z,99911.88
2022-09-17T05:04:06.529Z,99908.19
2022-09-17T05:06:35.014Z,99907.50
2022-09-17T05:09:03.456Z,99896.72
2022-09-17T05:11:37.629Z,99896.41
2022-09-17T05:14:06.084Z,99896.41
2022-09-17T05:16:34.871Z,99900.13
2022-09-17T05:19:04.598Z,99895.56
2022-09-17T05:21:35.867Z,99903.81
2022-09-17T05:24:05.019Z,99898.75
2022-09-17T05:26:33.287Z,99905.13
2022-09-17T05:29:01.640Z,99911.81
2022-09-17T05:31:30.077Z,99909.00
2022-09-17T05:33:59.848Z,99911.53
2022-09-17T05:36:29.849Z,99916.06
2022-09-17T05:38:58.286Z,99921.31
2022-09-17T05:41:26.634Z,99916.59
2022-09-17T05:43:58.316Z,99921.97
2022-09-17T05:46:27.060Z,99929.75
2022-09-17T05:48:57.162Z,99928.75
2022-09-17T05:51:25.534Z,99936.97
2022-09-17T05:53:57.229Z,99945.34
2022-09-17T05:56:25.906Z,99940.44
2022-09-17T05:58:56.998Z,99941.72
2022-09-17T06:01:25.664Z,99947.44
2022-09-17T06:03:56.781Z,99945.91
2022-09-17T06:06:25.336Z,99952.28
2022-09-17T06:08:53.820Z,99969.00
2022-09-17T06:11:24.021Z,99964.47
2022-09-17T06:13:54.996Z,99969.16
2022-09-17T06:16:24.407Z,99967.88
2022-09-17T06:18:56.430Z,99973.09
2022-09-17T06:21:25.027Z,99976.00
2022-09-17T06:23:54.033Z,99980.28
2022-09-17T06:26:24.776Z,99981.25
2022-09-17T06:28:53.121Z,99989.94
2022-09-17T06:31:21.562Z,99996.00
2022-09-17T06:33:51.512Z,100001.38
2022-09-17T06:36:19.725Z,99997.00
2022-09-17T06:38:47.975Z,100010.91
2022-09-17T06:41:17.148Z,100004.66
2022-09-17T06:43:47.308Z,100012.88
2022-09-17T06:46:15.763Z,100006.38
2022-09-17T06:48:44.366Z,100013.41
2022-09-17T06:51:12.980Z,100016.09
2022-09-17T06:53:41.391Z,100021.94
2022-09-17T06:56:10.769Z,100022.06
2022-09-17T06:58:41.741Z,100023.91
2022-09-17T07:01:12.911Z,100017.44
2022-09-17T07:03:44.285Z,100024.66
2022-09-17T07:06:12.903Z,100031.31
2022-09-17T07:08:42.549Z,100029.06
2022-09-17T07:11:11.294Z,100028.22
2022-09-17T07:13:39.660Z,100032.75
2022-09-17T07:16:12.742Z,100033.31
2022-09-17T07:18:41.054Z,100034.69
2022-09-17T07:21:10.777Z,100036.25
2022-09-17T07:23:39.351Z,100037.34
2022-09-17T07:26:09.616Z,100032.53
2022-09-17T07:28:39.896Z,100039.31
2022-09-17T07:31:13.730Z,100038.84
2022-09-17T07:33:49.121Z,100034.31
2022-09-17T07:36:18.811Z,100028.81
2022-09-17T07:38:47.354Z,100035.75
2022-09-17T07:41:18.550Z,100037.97
2022-09-17T07:43:47.836Z,100034.00
2022-09-17T07:46:18.054Z,100036.34
2022-09-17T07:48:49.476Z,100034.47
2022-09-17T07:51:20.259Z,100039.31
2022-09-17T07:53:50.790Z,100027.38
2022-09-17T07:56:19.385Z,100031.47
2022-09-17T07:58:47.782Z,100040.63
2022-09-17T08:01:18.396Z,100028.56
2022-09-17T08:03:55.063Z,100034.09
2022-09-17T08:06:26.206Z,100025.25
2022-09-17T08:08:55.051Z,100018.72
2022-09-17T08:14:16.808Z,100014.06
2022-09-17T08:16:46.552Z,100020.75
2022-09-17T08:19:18.212Z,100014.13
2022-09-17T08:21:49.496Z,100010.66
2022-09-17T08:24:17.943Z,100005.13
2022-09-17T08:26:46.348Z,100006.19
2022-09-17T08:29:15.284Z,99997.75
2022-09-17T08:31:44.123Z,99988.19
2022-09-17T08:34:14.024Z,99994.13
2022-09-17T08:36:43.952Z,99990.44
2022-09-17T08:39:24.133Z,99994.75
2022-09-17T08:42:03.498Z,99984.25
2022-09-17T08:44:40.765Z,99989.00
2022-09-17T08:47:15.959Z,99981.56
2022-09-17T08:49:57.416Z,99997.84
2022-09-17T08:53:00.734Z,99992.00
2022-09-17T08:55:35.622Z,99992.03
2022-09-17T08:58:27.315Z,99993.91
2022-09-17T09:01:06.409Z,99997.97
2022-09-17T09:03:51.747Z,99992.59
2022-09-17T09:06:23.200Z,99987.91
2022-09-17T09:08:59.489Z,99982.38
2022-09-17T09:11:31.172Z,99985.22
2022-09-17T09:14:06.763Z,99990.63
2022-09-17T09:16:40.262Z,99989.66
2022-09-17T09:19:21.232Z,99998.63
2022-09-17T09:22:03.113Z,100005.22
2022-09-17T09:24:42.490Z,99986.97
2022-09-17T09:27:20.335Z,99999.28
2022-09-17T09:30:03.941Z,100002.50
2022-09-17T09:32:48.260Z,99998.78
2022-09-17T09:35:19.853Z,100002.84
2022-09-17T09:37:55.494Z,99994.56
2022-09-17T09:40:37.625Z,99994.56
2022-09-17T09:43:19.107Z,99991.69
2022-09-17T09:46:14.757Z,99993.72
2022-09-17T09:48:51.639Z,99999.47
2022-09-17T09:51:34.764Z,100004.38
2022-09-17T09:54:19.365Z,100005.56
2022-09-17T09:56:56.724Z,100006.91
2022-09-17T09:59:25.796Z,99996.94
2022-09-17T10:01:54.248Z,99989.19
2022-09-17T10:04:24.444Z,100003.34
2022-09-17T10:06:54.288Z,100003.88
2022-09-17T10:09:23.673Z,100005.03
2022-09-17T10:12:04.640Z,100002.50
2022-09-17T10:14:35.473Z,99999.63
2022-09-17T10:17:18.186Z,100020.72
2022-09-17T10:19:47.949Z,100010.22
2022-09-17T10:22:30.890Z,100024.69
2022-09-17T10:25:01.387Z,100019.88
2022-09-17T10:27:32.359Z,100020.03
2022-09-17T10:30:05.526Z,100022.16
2022-09-17T10:32:33.904Z,100027.22
2022-09-17T10:35:07.709Z,100025.16
2022-09-17T10:37:44.660Z,100016.00
2022-09-17T10:40:31.813Z,100031.81
2022-09-17T10:43:25.577Z,100027.03
2022-09-17T10:46:00.271Z,100035.00
2022-09-17T10:48:34.173Z,100042.03
2022-09-17T10:51:03.762Z,100034.09
2022-09-17T10:53:32.607Z,100034.41
2022-09-17T10:56:13.140Z,100033.75
2022-09-17T10:58:53.790Z,100035.44
2022-09-17T11:01:43.856Z,100031.13
2022-09-17T11:04:29.360Z,100038.41
2022-09-17T11:07:31.358Z,100028.47
2022-09-17T11:10:11.213Z,100032.19
2022-09-17T11:12:56.200Z,100035.72
2022-09-17T11:15:41.775Z,100038.09
2022-09-17T11:18:36.852Z,100039.25
2022-09-17T11:21:42.106Z,100047.44
2022-09-17T11:24:37.257Z,100027.44
2022-09-17T11:27:18.616Z,100029.66
2022-09-17T11:30:03.388Z,100026.56
2022-09-17T11:32:47.448Z,100028.28
2022-09-17T11:35:18.363Z,100027.47
2022-09-17T11:37:54.643Z,100016.50
2022-09-17T11:40:38.124Z,100016.69
2022-09-17T11:43:14.539Z,100017.34
2022-09-17T11:45:52.375Z,100011.91
2022-09-17T11:48:26.055Z,100008.56
2022-09-17T11:50:59.707Z,100019.84
2022-09-17T11:53:33.555Z,100010.50
2022-09-17T11:56:07.088Z,100004.66
2022-09-17T11:58:44.091Z,99999.06
2022-09-17T12:01:17.609Z,100002.44
2022-09-17T12:03:56.293Z,100002.91
2022-09-17T12:06:30.418Z,99998.72
2022-09-17T12:09:03.260Z,100002.56
2022-09-17T12:11:41.827Z,100003.69
2022-09-17T12:14:17.252Z,100011.41
2022-09-17T12:16:48.841Z,100008.91
2022-09-17T12:19:25.537Z,100000.47
2022-09-17T12:21:58.354Z,100007.56
2022-09-17T12:24:31.051Z,100008.25
2022-09-17T12:27:09.492Z,100011.94
2022-09-17T12:30:01.014Z,99994.28
2022-09-17T12:32:46.982Z,100002.00
2022-09-17T12:35:46.398Z,99997.88
2022-09-17T12:38:32.240Z,99997.00
2022-09-17T12:41:05.574Z,99988.13
2022-09-17T12:43:50.784Z,100005.06
2022-09-17T12:46:35.664Z,100001.25
2022-09-17T12:49:40.605Z,99997.00
2022-09-17T12:52:19.531Z,99996.47
2022-09-17T12:55:12.288Z,99996.84
2022-09-17T12:57:51.547Z,99999.66
2022-09-17T13:00:20.279Z,100002.09
2022-09-17T13:02:59.023Z,99998.16
2022-09-17T13:05:56.369Z,100008.94
2022-09-17T13:09:02.115Z,100006.28
2022-09-17T13:12:12.133Z,100011.56
2022-09-17T13:15:01.519Z,100010.44
2022-09-17T13:17:40.840Z,100014.06
2022-09-17T13:20:17.927Z,100013.44
2022-09-17T13:22:50.517Z,100005.56
2022-09-17T13:25:22.973Z,100008.19
2022-09-17T13:27:52.933Z,100007.13
2022-09-17T13:30:21.860Z,100013.50
2022-09-17T13:32:52.405Z,100011.47
2022-09-17T13:35:47.748Z,100009.84
2022-09-17T13:38:20.187Z,100024.69
2022-09-17T13:40:53.519Z,100029.56
2022-09-17T13:43:27.978Z,100028.47
2022-09-17T13:46:12.904Z,100030.25
2022-09-17T13:49:01.071Z,100040.41
2022-09-17T13:51:56.334Z,100045.22
2022-09-17T13:54:37.561Z,100047.56
2022-09-17T13:57:16.288Z,100043.22
2022-09-17T13:59:56.397Z,100051.19
2022-09-17T14:02:39.300Z,100038.22
2022-09-17T14:05:38.549Z,100049.09
2022-09-17T14:08:31.136Z,100042.69
2022-09-17T14:11:02.368Z,100039.00
2022-09-17T14:13:45.122Z,100040.50
2022-09-17T14:16:37.252Z,100041.19
2022-09-17T14:19:23.858Z,100042.38
2022-09-17T14:22:03.200Z,100039.69
2022-09-17T14:24:38.432Z,100036.13
2022-09-17T14:27:14.697Z,100042.38
2022-09-17T14:30:08.822Z,100039.66
2022-09-17T14:32:43.809Z,100042.75
2022-09-17T14:35:20.436Z,100037.78
2022-09-17T14:37:55.951Z,100039.91
2022-09-17T14:40:26.369Z,100039.25
2022-09-17T14:42:57.068Z,100044.34
2022-09-17T14:45:31.759Z,100042.66
2022-09-17T14:48:20.608Z,100046.31
2022-09-17T14:50:48.921Z,100046.59
2022-09-17T14:53:19.198Z,100046.09
2022-09-17T14:55:50.123Z,100045.09
2022-09-17T14:58:34.144Z,100040.22
2022-09-17T15:01:04.207Z,100043.94
2022-09-17T15:03:32.432Z,100045.25
2022-09-17T15:06:00.665Z,100038.03
2022-09-17T15:08:30.639Z,100040.91
2022-09-17T15:11:02.681Z,100045.97
2022-09-17T15:13:38.828Z,100039.44
2022-09-17T15:16:18.157Z,100044.00
2022-09-17T15:18:52.496Z,100037.44
2022-09-17T15:21:30.809Z,100040.31
2022-09-17T15:24:04.733Z,100039.50
2022-09-17T15:26:42.373Z,100034.28
2022-09-17T15:29:13.905Z,100037.84
2022-09-17T15:31:44.295Z,100045.44
2022-09-17T15:34:13.693Z,100046.09
2022-09-17T15:36:42.348Z,100050.84
2022-09-17T15:39:32.167Z,100056.19
2022-09-17T15:42:00.751Z,100050.84
2022-09-17T15:44:31.214Z,100069.75
2022-09-17T15:47:33.216Z,100060.13
2022-09-17T15:50:25.416Z,100074.47
2022-09-17T15:53:12.742Z,100065.72
2022-09-17T15:55:43.226Z,100061.47
2022-09-17T15:58:27.103Z,100062.31
2022-09-17T16:01:40.409Z,100059.16
2022-09-17T16:04:20.970Z,100065.09
2022-09-17T16:06:55.195Z,100064.75
2022-09-17T16:09:47.150Z,100064.13
2022-09-17T16:12:18.813Z,100070.69
2022-09-17T16:14:49.094Z,100074.69
2022-09-17T16:17:28.214Z,100078.81
2022-09-17T16:20:00.367Z,100079.69
2022-09-17T16:22:33.906Z,100081.09
2022-09-17T16:25:06.345Z,100091.94
2022-09-17T16:27:44.576Z,100082.78
2022-09-17T16:30:17.036Z,100082.63
2022-09-17T16:32:46.280Z,100075.22
2022-09-17T16:35:17.466Z,100079.44
2022-09-17T16:37:50.177Z,100082.19
2022-09-17T16:40:22.333Z,100081.94
2022-09-17T16:42:50.768Z,100082.88
2022-09-17T16:45:19.089Z,100096.69
2022-09-17T16:47:47.663Z,100095.63
2022-09-17T16:50:19.808Z,100100.00
2022-09-17T16:52:49.484Z,100106.28
2022-09-17T16:55:19.456Z,100104.59
2022-09-17T16:57:48.330Z,100107.88
2022-09-17T17:00:19.750Z,100109.56
2022-09-17T17:02:53.979Z,100104.63
2022-09-17T17:05:22.610Z,100106.88
2022-09-17T17:07:55.487Z,100105.19
2022-09-17T17:10:26.649Z,100106.75
2022-09-17T17:12:56.152Z,100110.00
2022-09-17T17:15:25.633Z,100109.44
2022-09-17T17:17:55.316Z,100113.25
2022-09-17T17:20:24.323Z,100117.06
2022-09-17T17:22:54.038Z,100116.34
2022-09-17T17:25:23.776Z,100114.66
2022-09-17T17:27:52.670Z,100120.88
2022-09-17T17:30:22.381Z,100119.59
2022-09-17T17:32:52.559Z,100120.44
2022-09-17T17:35:22.384Z,100133.16
2022-09-17T17:37:50.628Z,100125.97
2022-09-17T17:40:20.713Z,100133.16
2022-09-17T17:42:53.747Z,100145.59
2022-09-17T17:45:22.115Z,100146.16
2022-09-17T17:47:50.639Z,100138.41
2022-09-17T17:50:19.820Z,100137.16
2022-09-17T17:52:50.299Z,100136.00
2022-09-17T17:55:26.820Z,100145.31
2022-09-17T17:58:01.072Z,100146.47
2022-09-17T18:00:30.021Z,100150.13
2022-09-17T18:03:02.010Z,100145.06
2022-09-17T18:05:33.189Z,100139.38
2022-09-17T18:08:01.727Z,100143.75
2022-09-17T18:10:37.076Z,100153.22
2022-09-17T18:13:05.633Z,100146.00
2022-09-17T18:15:34.325Z,100149.97
2022-09-17T18:18:06.299Z,100152.38
2022-09-17T18:20:34.992Z,100156.19
2022-09-17T18:23:03.278Z,100176.84
2022-09-17T18:25:33.192Z,100164.56
2022-09-17T18:28:01.442Z,100167.94
2022-09-17T18:30:36.972Z,100178.13
2022-09-17T18:33:05.923Z,100163.41
2022-09-17T18:35:37.761Z,100168.63
2022-09-17T18:38:10.126Z,100164.25
2022-09-17T18:40:39.812Z,100163.97
2022-09-17T18:43:08.869Z,100168.25
2022-09-17T18:45:37.623Z,100167.38
2022-09-17T18:48:08.076Z,100165.41
2022-09-17T18:50:36.996Z,100165.69
2022-09-17T18:53:06.132Z,100165.16
2022-09-17T18:55:34.386Z,100165.16
2022-09-17T18:58:04.836Z,100170.78
2022-09-17T19:00:33.524Z,100175.88
2022-09-17T19:03:03.672Z,100169.50
2022-09-17T19:05:36.253Z,100177.56
2022-09-17T19:08:06.433Z,100174.03
2022-09-17T19:10:35.017Z,100176.72
2022-09-17T19:13:05.845Z,100169.38
2022-09-17T19:15:34.878Z,100170.22
2022-09-17T19:18:07.785Z,100169.94
2022-09-17T19:20:38.776Z,100176.44
2022-09-17T19:23:08.441Z,100170.22
2022-09-17T19:25:37.709Z,100167.94
2022-09-17T19:28:08.938Z,100176.72
2022-09-17T19:30:37.542Z,100178.84
2022-09-17T19:33:07.219Z,100182.66
2022-09-17T19:35:38.450Z,100178.69
2022-09-17T19:38:13.206Z,100189.72
2022-09-17T19:40:44.301Z,100186.72
2022-09-17T19:43:15.097Z,100192.66
2022-09-17T19:45:44.989Z,100194.78
2022-09-17T19:48:13.781Z,100195.31
2022-09-17T19:50:51.972Z,100186.28
2022-09-17T19:53:22.539Z,100190.53
2022-09-17T19:55:51.708Z,100185.56
2022-09-17T19:58:21.636Z,100183.44
2022-09-17T20:00:57.890Z,100183.13
2022-09-17T20:03:27.232Z,100182.28
2022-09-17T20:06:00.865Z,100177.63
2022-09-17T20:08:32.238Z,100173.94
2022-09-17T20:11:06.575Z,100177.47
2022-09-17T20:13:37.203Z,100175.06
2022-09-17T20:16:06.250Z,100173.09
2022-09-17T20:18:35.654Z,100170.00
2022-09-17T20:21:08.472Z,100172.13
2022-09-17T20:23:36.784Z,100176.81
2022-09-17T20:26:05.360Z,100172.88
2022-09-17T20:28:34.686Z,100174.84
2022-09-17T20:31:06.808Z,100168.19
2022-09-17T20:33:35.592Z,100176.72
2022-09-17T20:36:11.826Z,100180.66
2022-09-17T20:39:11.500Z,100180.97
2022-09-17T20:41:34.458Z,100174.72
2022-09-17T20:44:03.164Z,100185.91
2022-09-17T20:46:33.126Z,100190.84
2022-09-17T20:49:01.536Z,100188.47
2022-09-17T20:51:32.782Z,100187.59
2022-09-17T20:54:02.459Z,100195.66
2022-09-17T20:56:33.436Z,100199.34
2022-09-17T20:59:08.515Z,100203.88
2022-09-17T21:01:38.961Z,100209.81
2022-09-17T21:04:09.586Z,100215.03
2022-09-17T21:06:41.645Z,100217.44
2022-09-17T21:09:12.313Z,100220.25
2022-09-17T21:11:42.640Z,100219.56
2022-09-17T21:14:15.890Z,100217.03
2022-09-17T21:16:47.792Z,100217.03
2022-09-17T21:19:18.319Z,100212.06
2022-09-17T21:21:49.058Z,100221.28
2022-09-17T21:24:17.868Z,100209.66
2022-09-17T21:26:46.816Z,100206.41
2022-09-17T21:29:19.041Z,100209.81
2022-09-17T21:31:49.377Z,100205.56
2022-09-17T21:34:19.228Z,100205.00
2022-09-17T21:36:49.538Z,100208.50
2022-09-17T21:39:19.088Z,100206.84
2022-09-17T21:41:48.666Z,100215.19
2022-09-17T21:44:17.877Z,100224.22
2022-09-17T21:46:46.268Z,100214.31
2022-09-17T21:49:17.619Z,100223.09
2022-09-17T21:51:45.794Z,100223.66
2022-09-17T21:54:17.159Z,100219.97
2022-09-17T21:56:46.681Z,100233.28
2022-09-17T21:59:17.063Z,100229.91
2022-09-17T22:01:48.173Z,100228.91
2022-09-17T22:04:20.056Z,100230.03
2022-09-17T22:06:49.928Z,100225.50
2022-09-17T22:09:20.163Z,100220.56
2022-09-17T22:11:49.313Z,100223.38
2022-09-17T22:14:20.621Z,100220.56
2022-09-17T22:16:52.581Z,100219.28
2022-09-17T22:19:24.038Z,100223.66
2022-09-17T22:21:53.876Z,100209.78
2022-09-17T22:24:24.148Z,100217.28
2022-09-17T22:26:57.458Z,100226.19
2022-09-17T22:29:27.496Z,100216.44
2022-09-17T22:31:57.353Z,100210.91
2022-09-17T22:34:30.661Z,100212.34
2022-09-17T22:37:00.036Z,100224.53
2022-09-17T22:39:28.446Z,100223.66
2022-09-17T22:41:56.996Z,100220.41
2022-09-17T22:44:25.242Z,100227.63
2022-09-17T22:46:53.814Z,100221.13
2022-09-17T22:49:22.829Z,100215.75
2022-09-17T22:51:53.150Z,100218.84
2022-09-17T22:54:21.391Z,100217.44
2022-09-17T22:56:50.202Z,100210.09
2022-09-17T22:59:19.677Z,100219.13
2022-09-17T23:01:48.167Z,100216.16
2022-09-17T23:04:16.677Z,100213.75
2022-09-17T23:06:45.128Z,100216.59
2022-09-17T23:09:16.089Z,100209.50
2022-09-17T23:11:45.260Z,100209.81
2022-09-17T23:14:14.704Z,100214.03
2022-09-17T23:16:47.497Z,100207.66
2022-09-17T23:19:17.437Z,100202.44
2022-09-17T23:21:46.625Z,100198.75
2022-09-17T23:24:21.918Z,100195.09
2022-09-17T23:26:51.303Z,100201.31
2022-09-17T23:29:20.101Z,100199.75
2022-09-17T23:31:48.569Z,100203.13
2022-09-17T23:34:16.956Z,100185.72
2022-09-17T23:36:45.432Z,100189.41
2022-09-17T23:39:13.645Z,100189.97
2022-09-17T23:41:45.695Z,100186.59
2022-09-17T23:44:15.973Z,100193.25
2022-09-17T23:46:47.222Z,100193.97
2022-09-17T23:49:16.444Z,100185.91
2022-09-17T23:51:45.565Z,100189.19
2022-09-17T23:54:17.644Z,100195.78
2022-09-17T23:56:47.420Z,100194.22
2022-09-17T23:59:16.031Z,100188.31
